sensor_id;sensor_type;location;lat;lon;timestamp;temperature;humidity
15184;DHT22;7693;49.266;7.104;2022-12-07T06:05:47;3.60;99.90
15184;DHT22;7693;49.266;7.104;2022-12-07T06:08:13;3.70;99.90
15184;DHT22;7693;49.266;7.104;2022-12-07T06:10:40;3.80;99.90
15184;DHT22;7693;49.266;7.104;2022-12-07T06:13:07;3.80;99.90
15184;DHT22;7693;49.266;7.104;2022-12-07T06:15:35;3.80;99.90
15184;DHT22;7693;49.266;7.104;2022-12-07T06:18:01;3.80;99.90
15184;DHT22;7693;49.266;7.104;2022-12-07T06:20:27;3.90;99.90
15184;DHT22;7693;49.266;7.104;2022-12-07T06:22:52;3.90;99.90
15184;DHT22;7693;49.266;7.104;2022-12-07T06:25:18;3.90;99.90
15184;DHT22;7693;49.266;7.104;2022-12-07T06:27:43;4.00;99.90
15184;DHT22;7693;49.266;7.104;2022-12-07T06:30:09;4.00;99.90
15184;DHT22;7693;49.266;7.104;2022-12-07T06:32:36;4.00;99.90
15184;DHT22;7693;49.266;7.104;2022-12-07T06:35:02;4.00;99.90
15184;DHT22;7693;49.266;7.104;2022-12-07T06:37:27;4.00;99.90
15184;DHT22;7693;49.266;7.104;2022-12-07T06:39:53;4.00;99.90
15184;DHT22;7693;49.266;7.104;2022-12-07T06:42:18;4.00;99.90
15184;DHT22;7693;49.266;7.104;2022-12-07T06:44:44;3.90;99.90
15184;DHT22;7693;49.266;7.104;2022-12-07T06:47:10;4.00;99.90
15184;DHT22;7693;49.266;7.104;2022-12-07T06:49:36;4.00;99.90
15184;DHT22;7693;49.266;7.104;2022-12-07T06:52:05;3.90;99.90
15184;DHT22;7693;49.266;7.104;2022-12-07T06:54:31;3.90;99.90
15184;DHT22;7693;49.266;7.104;2022-12-07T06:56:57;3.90;99.90
15184;DHT22;7693;49.266;7.104;2022-12-07T06:59:22;3.90;99.90
15184;DHT22;7693;49.266;7.104;2022-12-07T07:01:48;4.00;99.90
15184;DHT22;7693;49.266;7.104;2022-12-07T07:04:13;4.00;99.90
15184;DHT22;7693;49.266;7.104;2022-12-07T07:06:39;4.00;99.90
15184;DHT22;7693;49.266;7.104;2022-12-07T07:09:04;4.00;99.90
15184;DHT22;7693;49.266;7.104;2022-12-07T07:11:30;4.00;99.90
15184;DHT22;7693;49.266;7.104;2022-12-07T07:13:55;4.00;99.90
15184;DHT22;7693;49.266;7.104;2022-12-07T07:16:23;4.00;99.90
15184;DHT22;7693;49.266;7.104;2022-12-07T07:18:49;4.00;99.90
15184;DHT22;7693;49.266;7.104;2022-12-07T07:21:15;4.00;99.90
15184;DHT22;7693;49.266;7.104;2022-12-07T07:23:40;4.00;99.90
15184;DHT22;7693;49.266;7.104;2022-12-07T07:26:09;4.00;99.90
15184;DHT22;7693;49.266;7.104;2022-12-07T07:28:34;4.10;99.90
15184;DHT22;7693;49.266;7.104;2022-12-07T07:31:00;4.20;99.90
15184;DHT22;7693;49.266;7.104;2022-12-07T07:33:25;4.20;99.90
15184;DHT22;7693;49.266;7.104;2022-12-07T07:35:51;4.30;99.90
15184;DHT22;7693;49.266;7.104;2022-12-07T07:38:17;4.30;99.90
15184;DHT22;7693;49.266;7.104;2022-12-07T07:40:42;4.40;99.90
15184;DHT22;7693;49.266;7.104;2022-12-07T07:43:08;4.40;99.90
15184;DHT22;7693;49.266;7.104;2022-12-07T07:45:33;4.40;99.90
15184;DHT22;7693;49.266;7.104;2022-12-07T07:47:59;4.40;99.90
15184;DHT22;7693;49.266;7.104;2022-12-07T07:50:24;4.50;99.90
15184;DHT22;7693;49.266;7.104;2022-12-07T07:52:51;4.50;99.90
15184;DHT22;7693;49.266;7.104;2022-12-07T07:55:17;4.50;99.90
15184;DHT22;7693;49.266;7.104;2022-12-07T07:57:43;4.50;99.90
15184;DHT22;7693;49.266;7.104;2022-12-07T08:00:11;4.50;99.90
15184;DHT22;7693;49.266;7.104;2022-12-07T08:02:37;4.50;99.90
15184;DHT22;7693;49.266;7.104;2022-12-07T08:05:03;4.50;99.90
15184;DHT22;7693;49.266;7.104;2022-12-07T08:07:28;4.50;99.90
15184;DHT22;7693;49.266;7.104;2022-12-07T08:09:54;4.50;99.90
15184;DHT22;7693;49.266;7.104;2022-12-07T08:12:25;4.50;99.90
15184;DHT22;7693;49.266;7.104;2022-12-07T08:14:51;4.50;99.90
15184;DHT22;7693;49.266;7.104;2022-12-07T08:17:16;4.50;99.90
15184;DHT22;7693;49.266;7.104;2022-12-07T08:19:42;4.50;99.90
15184;DHT22;7693;49.266;7.104;2022-12-07T08:22:07;4.50;99.90
15184;DHT22;7693;49.266;7.104;2022-12-07T08:24:34;4.50;99.90
15184;DHT22;7693;49.266;7.104;2022-12-07T08:27:00;4.50;99.90
15184;DHT22;7693;49.266;7.104;2022-12-07T08:29:25;4.50;99.90
15184;DHT22;7693;49.266;7.104;2022-12-07T08:31:51;4.60;99.90
15184;DHT22;7693;49.266;7.104;2022-12-07T08:34:16;4.60;99.90
15184;DHT22;7693;49.266;7.104;2022-12-07T08:36:42;4.60;99.90
15184;DHT22;7693;49.266;7.104;2022-12-07T08:39:08;4.60;99.90
15184;DHT22;7693;49.266;7.104;2022-12-07T08:41:33;4.70;99.90
15184;DHT22;7693;49.266;7.104;2022-12-07T08:43:59;4.70;99.90
15184;DHT22;7693;49.266;7.104;2022-12-07T08:46:35;4.70;99.90
15184;DHT22;7693;49.266;7.104;2022-12-07T08:49:26;4.70;99.90
15184;DHT22;7693;49.266;7.104;2022-12-07T08:51:53;4.70;99.90
15184;DHT22;7693;49.266;7.104;2022-12-07T08:54:19;4.70;99.90
15184;DHT22;7693;49.266;7.104;2022-12-07T08:56:46;4.70;99.90
15184;DHT22;7693;49.266;7.104;2022-12-07T08:59:14;4.70;99.90
15184;DHT22;7693;49.266;7.104;2022-12-07T09:01:41;4.70;99.90
15184;DHT22;7693;49.266;7.104;2022-12-07T09:04:07;4.70;99.90
15184;DHT22;7693;49.266;7.104;2022-12-07T09:06:33;4.80;99.90
15184;DHT22;7693;49.266;7.104;2022-12-07T09:08:59;4.80;99.90
15184;DHT22;7693;49.266;7.104;2022-12-07T09:11:26;4.80;99.90
15184;DHT22;7693;49.266;7.104;2022-12-07T09:13:52;4.90;99.90
15184;DHT22;7693;49.266;7.104;2022-12-07T09:16:17;4.90;99.90
15184;DHT22;7693;49.266;7.104;2022-12-07T09:18:43;4.90;99.90
15184;DHT22;7693;49.266;7.104;2022-12-07T09:21:08;4.90;99.90
15184;DHT22;7693;49.266;7.104;2022-12-07T09:23:34;4.90;99.90
15184;DHT22;7693;49.266;7.104;2022-12-07T09:26:04;4.90;99.90
15184;DHT22;7693;49.266;7.104;2022-12-07T09:28:31;5.00;99.90
15184;DHT22;7693;49.266;7.104;2022-12-07T09:30:57;5.00;99.90
15184;DHT22;7693;49.266;7.104;2022-12-07T09:33:22;5.00;99.90
15184;DHT22;7693;49.266;7.104;2022-12-07T09:35:49;5.00;99.90
15184;DHT22;7693;49.266;7.104;2022-12-07T09:38:15;5.00;99.90
15184;DHT22;7693;49.266;7.104;2022-12-07T09:40:42;5.00;99.90
15184;DHT22;7693;49.266;7.104;2022-12-07T09:43:22;5.10;99.90
15184;DHT22;7693;49.266;7.104;2022-12-07T09:45:54;5.00;99.90
15184;DHT22;7693;49.266;7.104;2022-12-07T09:48:35;5.10;99.90
15184;DHT22;7693;49.266;7.104;2022-12-07T09:51:02;5.10;99.90
15184;DHT22;7693;49.266;7.104;2022-12-07T09:53:36;5.10;99.90
15184;DHT22;7693;49.266;7.104;2022-12-07T09:56:03;5.20;99.90
15184;DHT22;7693;49.266;7.104;2022-12-07T09:58:30;5.20;99.90
15184;DHT22;7693;49.266;7.104;2022-12-07T10:01:00;5.20;99.90
15184;DHT22;7693;49.266;7.104;2022-12-07T10:03:29;5.30;99.90
15184;DHT22;7693;49.266;7.104;2022-12-07T10:05:55;5.30;99.90
15184;DHT22;7693;49.266;7.104;2022-12-07T10:08:21;5.30;99.90
15184;DHT22;7693;49.266;7.104;2022-12-07T10:10:54;5.30;99.90
15184;DHT22;7693;49.266;7.104;2022-12-07T10:13:34;5.30;99.90
15184;DHT22;7693;49.266;7.104;2022-12-07T10:15:59;5.30;99.90
15184;DHT22;7693;49.266;7.104;2022-12-07T10:21:12;5.30;99.90
15184;DHT22;7693;49.266;7.104;2022-12-07T10:23:40;5.30;99.90
15184;DHT22;7693;49.266;7.104;2022-12-07T10:26:26;5.20;99.90
15184;DHT22;7693;49.266;7.104;2022-12-07T10:28:53;5.20;99.90
15184;DHT22;7693;49.266;7.104;2022-12-07T10:31:22;5.20;99.90
15184;DHT22;7693;49.266;7.104;2022-12-07T10:33:57;5.20;99.90
15184;DHT22;7693;49.266;7.104;2022-12-07T10:36:24;5.20;99.90
15184;DHT22;7693;49.266;7.104;2022-12-07T10:38:53;5.20;99.90
15184;DHT22;7693;49.266;7.104;2022-12-07T10:41:23;5.30;99.90
15184;DHT22;7693;49.266;7.104;2022-12-07T10:43:52;5.20;99.90
15184;DHT22;7693;49.266;7.104;2022-12-07T10:49:17;5.30;99.90
15184;DHT22;7693;49.266;7.104;2022-12-07T10:55:01;5.40;99.90
15184;DHT22;7693;49.266;7.104;2022-12-07T10:57:53;5.40;99.90
15184;DHT22;7693;49.266;7.104;2022-12-07T11:00:23;5.40;99.90
15184;DHT22;7693;49.266;7.104;2022-12-07T19:57:34;3.70;99.90
15184;DHT22;7693;49.266;7.104;2022-12-07T20:00:00;3.70;99.90
15184;DHT22;7693;49.266;7.104;2022-12-07T20:02:26;3.80;99.90
15184;DHT22;7693;49.266;7.104;2022-12-07T20:04:51;3.80;99.90
15184;DHT22;7693;49.266;7.104;2022-12-07T20:07:17;3.80;99.90
15184;DHT22;7693;49.266;7.104;2022-12-07T20:09:42;3.80;99.90
15184;DHT22;7693;49.266;7.104;2022-12-07T20:12:09;3.90;99.90
15184;DHT22;7693;49.266;7.104;2022-12-07T20:14:53;3.80;99.90
15184;DHT22;7693;49.266;7.104;2022-12-07T20:17:19;3.90;99.90
15184;DHT22;7693;49.266;7.104;2022-12-07T20:19:44;3.90;99.90
15184;DHT22;7693;49.266;7.104;2022-12-07T20:22:10;3.90;99.90
15184;DHT22;7693;49.266;7.104;2022-12-07T20:24:36;3.90;99.90
15184;DHT22;7693;49.266;7.104;2022-12-07T20:27:02;3.90;99.90
15184;DHT22;7693;49.266;7.104;2022-12-07T20:29:28;3.90;99.90
15184;DHT22;7693;49.266;7.104;2022-12-07T20:31:54;3.90;99.90
15184;DHT22;7693;49.266;7.104;2022-12-07T20:34:20;3.90;99.90
15184;DHT22;7693;49.266;7.104;2022-12-07T20:36:45;3.90;99.90
15184;DHT22;7693;49.266;7.104;2022-12-07T20:39:12;3.90;99.90
15184;DHT22;7693;49.266;7.104;2022-12-07T20:41:38;3.90;99.90
15184;DHT22;7693;49.266;7.104;2022-12-07T20:44:21;3.90;99.90
15184;DHT22;7693;49.266;7.104;2022-12-07T20:46:48;3.90;99.90
15184;DHT22;7693;49.266;7.104;2022-12-07T20:49:14;3.90;99.90
15184;DHT22;7693;49.266;7.104;2022-12-07T20:51:41;3.90;99.90
15184;DHT22;7693;49.266;7.104;2022-12-07T20:54:07;3.90;99.90
15184;DHT22;7693;49.266;7.104;2022-12-07T20:56:33;3.90;99.90
15184;DHT22;7693;49.266;7.104;2022-12-07T20:59:01;3.90;99.90
15184;DHT22;7693;49.266;7.104;2022-12-07T21:01:28;4.00;99.90
15184;DHT22;7693;49.266;7.104;2022-12-07T21:03:54;4.00;99.90
15184;DHT22;7693;49.266;7.104;2022-12-07T21:06:20;4.00;99.90
15184;DHT22;7693;49.266;7.104;2022-12-07T21:08:52;4.00;99.90
15184;DHT22;7693;49.266;7.104;2022-12-07T21:11:19;4.00;99.90
15184;DHT22;7693;49.266;7.104;2022-12-07T21:13:45;4.00;99.90
15184;DHT22;7693;49.266;7.104;2022-12-07T21:16:13;4.10;99.90
15184;DHT22;7693;49.266;7.104;2022-12-07T21:18:39;4.10;99.90
15184;DHT22;7693;49.266;7.104;2022-12-07T21:21:07;4.10;99.90
15184;DHT22;7693;49.266;7.104;2022-12-07T21:23:33;4.10;99.90
15184;DHT22;7693;49.266;7.104;2022-12-07T21:25:59;4.10;99.90
15184;DHT22;7693;49.266;7.104;2022-12-07T21:28:25;4.10;99.90
15184;DHT22;7693;49.266;7.104;2022-12-07T21:31:01;4.10;99.90
15184;DHT22;7693;49.266;7.104;2022-12-07T21:33:27;4.00;99.90
15184;DHT22;7693;49.266;7.104;2022-12-07T21:35:52;4.00;99.90
15184;DHT22;7693;49.266;7.104;2022-12-07T21:38:18;4.10;99.90
15184;DHT22;7693;49.266;7.104;2022-12-07T21:40:44;4.00;99.90
15184;DHT22;7693;49.266;7.104;2022-12-07T21:43:09;4.00;99.90
15184;DHT22;7693;49.266;7.104;2022-12-07T21:45:38;4.00;99.90
15184;DHT22;7693;49.266;7.104;2022-12-07T21:48:04;4.00;99.90
15184;DHT22;7693;49.266;7.104;2022-12-07T21:50:29;4.10;99.90
15184;DHT22;7693;49.266;7.104;2022-12-07T21:52:55;4.10;99.90
15184;DHT22;7693;49.266;7.104;2022-12-07T21:55:20;4.10;99.90
15184;DHT22;7693;49.266;7.104;2022-12-07T21:57:46;4.10;99.90
15184;DHT22;7693;49.266;7.104;2022-12-07T22:00:12;4.10;99.90
15184;DHT22;7693;49.266;7.104;2022-12-07T22:02:39;4.10;99.90
15184;DHT22;7693;49.266;7.104;2022-12-07T22:05:05;4.20;99.90
15184;DHT22;7693;49.266;7.104;2022-12-07T22:07:32;4.20;99.90
15184;DHT22;7693;49.266;7.104;2022-12-07T22:09:57;4.20;99.90
15184;DHT22;7693;49.266;7.104;2022-12-07T22:12:23;4.20;99.90
15184;DHT22;7693;49.266;7.104;2022-12-07T22:14:48;4.20;99.90
15184;DHT22;7693;49.266;7.104;2022-12-07T22:17:34;4.20;99.90
15184;DHT22;7693;49.266;7.104;2022-12-07T22:20:00;4.20;99.90
15184;DHT22;7693;49.266;7.104;2022-12-07T22:22:26;4.20;99.90
15184;DHT22;7693;49.266;7.104;2022-12-07T22:24:51;4.20;99.90
15184;DHT22;7693;49.266;7.104;2022-12-07T22:27:17;4.20;99.90
15184;DHT22;7693;49.266;7.104;2022-12-07T22:29:43;4.20;99.90
15184;DHT22;7693;49.266;7.104;2022-12-07T22:32:09;4.20;99.90
15184;DHT22;7693;49.266;7.104;2022-12-07T22:34:34;4.20;99.90
15184;DHT22;7693;49.266;7.104;2022-12-07T22:37:00;4.20;99.90
15184;DHT22;7693;49.266;7.104;2022-12-07T22:39:25;4.20;99.90
15184;DHT22;7693;49.266;7.104;2022-12-07T22:41:51;4.20;99.90
15184;DHT22;7693;49.266;7.104;2022-12-07T22:44:16;4.20;99.90
15184;DHT22;7693;49.266;7.104;2022-12-07T22:46:43;4.20;99.90
15184;DHT22;7693;49.266;7.104;2022-12-07T22:49:09;4.20;99.90
15184;DHT22;7693;49.266;7.104;2022-12-07T22:51:38;4.20;99.90
15184;DHT22;7693;49.266;7.104;2022-12-07T22:54:06;4.20;99.90
15184;DHT22;7693;49.266;7.104;2022-12-07T22:56:34;4.20;99.90
15184;DHT22;7693;49.266;7.104;2022-12-07T22:59:00;4.20;99.90
15184;DHT22;7693;49.266;7.104;2022-12-07T23:01:26;4.20;99.90
15184;DHT22;7693;49.266;7.104;2022-12-07T23:03:52;4.20;99.90
15184;DHT22;7693;49.266;7.104;2022-12-07T23:06:24;4.20;99.90
15184;DHT22;7693;49.266;7.104;2022-12-07T23:08:50;4.20;99.90
15184;DHT22;7693;49.266;7.104;2022-12-07T23:11:19;4.20;99.90
15184;DHT22;7693;49.266;7.104;2022-12-07T23:14:14;4.20;99.90
15184;DHT22;7693;49.266;7.104;2022-12-07T23:16:40;4.20;99.90
15184;DHT22;7693;49.266;7.104;2022-12-07T23:19:06;4.10;99.90
15184;DHT22;7693;49.266;7.104;2022-12-07T23:21:32;4.10;99.90
15184;DHT22;7693;49.266;7.104;2022-12-07T23:23:58;4.10;99.90
15184;DHT22;7693;49.266;7.104;2022-12-07T23:26:23;4.10;99.90
15184;DHT22;7693;49.266;7.104;2022-12-07T23:28:49;4.10;99.90
15184;DHT22;7693;49.266;7.104;2022-12-07T23:31:20;4.10;99.90
